Time;durP1;ratioP1;P1;durP2;ratioP2;P2;SDS_P1;SDS_P2;PMS_P1;PMS_P2;Temp;Humidity;BMP_temperature;BMP_pressure;BME280_temperature;BME280_humidity;BME280_pressure;Samples;Min_cycle;Max_cycle;Signal;HPM_P1;HPM_P2
2024/03/28 00:01:51;;;;;;;16.33;15.10;;;13.70;99.90;;;;;;5019642;28;20218;-39
2024/03/28 00:04:16;;;;;;;16.77;15.37;;;13.80;99.90;;;;;;5020120;28;21177;-39
2024/03/28 00:06:42;;;;;;;17.00;15.50;;;13.70;99.90;;;;;;5019503;28;20174;-40
2024/03/28 00:09:07;;;;;;;17.17;15.90;;;13.70;99.90;;;;;;5022713;28;20192;-48
2024/03/28 00:11:33;;;;;;;17.03;15.73;;;13.70;99.90;;;;;;5024501;28;20833;-51
2024/03/28 00:13:58;;;;;;;17.30;16.00;;;13.70;99.90;;;;;;5024278;28;20553;-47
2024/03/28 00:16:24;;;;;;;17.40;16.10;;;13.70;99.90;;;;;;5023506;28;20194;-51
2024/03/28 00:18:50;;;;;;;16.70;15.30;;;13.80;99.90;;;;;;5022707;28;20236;-49
2024/03/28 00:21:15;;;;;;;17.73;16.10;;;13.70;99.90;;;;;;5024001;28;20653;-50
2024/03/28 00:23:41;;;;;;;16.37;15.17;;;13.70;99.90;;;;;;5023411;28;20184;-51
2024/03/28 00:26:08;;;;;;;16.13;14.90;;;13.70;99.90;;;;;;5024018;28;21316;-47
2024/03/28 00:28:34;;;;;;;15.53;14.37;;;13.70;99.90;;;;;;5022915;28;20198;-49
2024/03/28 00:31:01;;;;;;;15.77;14.57;;;13.70;99.90;;;;;;5023879;28;20907;-48
2024/03/28 00:33:27;;;;;;;16.30;15.03;;;13.70;99.90;;;;;;5022681;28;20187;-51
2024/03/28 00:35:52;;;;;;;16.10;14.80;;;13.70;99.90;;;;;;5022998;28;20562;-50
2024/03/28 00:38:18;;;;;;;15.10;14.10;;;13.70;99.90;;;;;;5023608;28;20613;-51
2024/03/28 00:40:52;;;;;;;15.20;14.20;;;13.80;99.90;;;;;;5024453;28;20217;-52
2024/03/28 00:43:18;;;;;;;15.27;14.17;;;13.80;99.90;;;;;;5023165;28;21049;-50
2024/03/28 00:45:45;;;;;;;15.07;14.07;;;13.90;99.90;;;;;;5022086;28;20498;-48
2024/03/28 00:48:11;;;;;;;15.03;14.03;;;13.90;99.90;;;;;;5022636;28;20447;-50
2024/03/28 00:50:37;;;;;;;16.27;14.60;;;14.00;99.90;;;;;;5023507;28;20930;-51
2024/03/28 00:53:03;;;;;;;15.20;14.00;;;14.00;99.90;;;;;;5023019;28;20413;-45
2024/03/28 00:55:29;;;;;;;14.93;13.93;;;14.00;59.50;;;;;;5019658;28;20441;-52
2024/03/28 00:57:55;;;;;;;15.77;14.23;;;14.10;29.50;;;;;;5022096;28;20935;-46
2024/03/28 01:00:21;;;;;;;14.30;13.30;;;14.10;1.20;;;;;;5023748;28;20471;-45
2024/03/28 01:02:47;;;;;;;15.50;14.30;;;14.10;1.00;;;;;;5023163;28;20472;-52
2024/03/28 01:05:14;;;;;;;15.10;14.03;;;14.10;1.00;;;;;;5022807;28;20575;-48
2024/03/28 01:07:39;;;;;;;15.43;14.33;;;14.10;1.00;;;;;;5022065;28;20214;-48
2024/03/28 01:10:06;;;;;;;16.67;15.10;;;14.20;1.00;;;;;;5021795;28;20512;-51
2024/03/28 01:12:31;;;;;;;15.20;14.17;;;14.20;1.00;;;;;;5023002;28;20281;-41
2024/03/28 01:14:57;;;;;;;16.13;15.00;;;14.10;1.00;;;;;;5021820;28;20877;-45
2024/03/28 01:17:23;;;;;;;16.07;14.87;;;14.10;1.00;;;;;;5021453;28;20261;-41
2024/03/28 01:19:50;;;;;;;16.20;14.80;;;14.10;1.00;;;;;;5021759;28;20195;-42
2024/03/28 01:22:16;;;;;;;15.17;14.17;;;14.10;1.00;;;;;;5022925;28;20512;-43
2024/03/28 01:24:41;;;;;;;14.90;13.90;;;14.00;1.00;;;;;;5021946;28;20520;-38
2024/03/28 01:27:07;;;;;;;15.97;14.50;;;14.00;1.00;;;;;;5021503;28;20988;-39
2024/03/28 01:29:33;;;;;;;15.60;14.30;;;14.00;1.00;;;;;;5021742;28;20187;-39
2024/03/28 01:31:58;;;;;;;15.83;14.73;;;14.00;1.00;;;;;;5022955;28;20551;-42
2024/03/28 01:34:26;;;;;;;16.10;14.90;;;14.00;1.00;;;;;;5021970;28;20201;-42
2024/03/28 01:36:52;;;;;;;15.77;14.43;;;14.00;1.00;;;;;;5019863;28;20517;-42
2024/03/28 01:39:18;;;;;;;15.57;14.47;;;14.00;1.00;;;;;;5022296;28;20424;-42
2024/03/28 01:41:49;;;;;;;15.20;14.03;;;14.00;1.00;;;;;;5022002;28;20511;-43
2024/03/28 01:44:14;;;;;;;15.50;14.30;;;14.00;1.00;;;;;;5021745;28;20767;-47
2024/03/28 01:46:40;;;;;;;14.90;13.63;;;14.00;1.00;;;;;;5022928;28;20440;-41
2024/03/28 01:49:07;;;;;;;15.77;14.57;;;14.10;1.00;;;;;;5021453;28;20209;-43
2024/03/28 01:51:33;;;;;;;15.83;14.80;;;14.10;1.00;;;;;;5021798;28;20445;-42
2024/03/28 01:53:59;;;;;;;16.43;15.13;;;14.00;1.00;;;;;;5021397;28;20502;-45
2024/03/28 01:56:24;;;;;;;15.67;14.33;;;14.10;1.00;;;;;;5020687;28;20469;-42
2024/03/28 01:58:51;;;;;;;18.33;15.33;;;14.10;1.00;;;;;;5021976;28;21069;-40
2024/03/28 02:01:17;;;;;;;16.53;15.20;;;14.00;1.00;;;;;;5022172;28;20198;-42
2024/03/28 02:03:44;;;;;;;16.57;15.40;;;14.00;1.00;;;;;;5021123;28;20432;-41
2024/03/28 02:06:09;;;;;;;17.07;15.70;;;14.00;1.00;;;;;;5021531;28;20421;-42
2024/03/28 02:08:35;;;;;;;17.70;16.13;;;14.00;99.90;;;;;;5021832;28;20464;-42
2024/03/28 02:11:01;;;;;;;17.20;15.90;;;14.00;99.90;;;;;;5021045;28;21015;-41
2024/03/28 02:13:26;;;;;;;17.77;16.47;;;14.00;99.90;;;;;;5021923;28;20277;-42
2024/03/28 02:15:52;;;;;;;16.87;15.30;;;14.00;99.90;;;;;;5021352;28;20986;-42
2024/03/28 02:18:24;;;;;;;16.57;15.37;;;14.00;99.90;;;;;;5022086;28;20275;-40
2024/03/28 02:20:49;;;;;;;17.27;15.87;;;14.00;99.90;;;;;;5020731;28;20221;-42
2024/03/28 02:23:15;;;;;;;17.00;15.70;;;13.90;99.90;;;;;;5020970;28;20515;-42
2024/03/28 02:25:42;;;;;;;17.80;16.40;;;13.90;99.90;;;;;;5019964;28;20321;-40
2024/03/28 02:28:08;;;;;;;17.13;15.93;;;14.00;99.90;;;;;;5021708;28;20183;-42
2024/03/28 02:30:34;;;;;;;16.97;15.67;;;14.00;99.90;;;;;;5021552;28;20417;-42
2024/03/28 02:33:00;;;;;;;17.83;16.33;;;14.10;66.30;;;;;;5021232;28;20490;-41
2024/03/28 02:35:26;;;;;;;17.93;16.43;;;14.00;23.00;;;;;;5019779;28;20478;-43
2024/03/28 02:37:51;;;;;;;16.93;15.73;;;14.00;12.90;;;;;;5021310;28;20255;-39
2024/03/28 02:40:17;;;;;;;18.07;16.77;;;14.00;20.20;;;;;;5021093;28;20214;-42
2024/03/28 02:42:42;;;;;;;18.13;16.83;;;13.90;1.00;;;;;;5022200;28;20183;-41
2024/03/28 02:45:08;;;;;;;18.10;16.53;;;13.90;1.00;;;;;;5020194;28;20200;-42
2024/03/28 02:47:36;;;;;;;18.77;17.30;;;13.80;1.00;;;;;;5020701;28;20190;-41
2024/03/28 02:50:02;;;;;;;18.03;16.70;;;13.70;1.00;;;;;;5021261;28;20475;-37
2024/03/28 02:52:27;;;;;;;18.43;17.03;;;13.60;20.20;;;;;;5020904;28;20425;-40
2024/03/28 02:54:53;;;;;;;17.87;16.37;;;13.30;96.60;;;;;;5020522;28;20531;-42
2024/03/28 02:57:23;;;;;;;17.57;16.37;;;13.10;99.90;;;;;;5020341;28;20194;-39
2024/03/28 02:59:48;;;;;;;18.00;16.60;;;12.90;99.90;;;;;;5020316;28;20197;-39
2024/03/28 03:02:14;;;;;;;16.50;15.20;;;12.80;1.00;;;;;;5021764;28;20421;-40
2024/03/28 03:04:40;;;;;;;17.07;15.57;;;12.70;1.00;;;;;;5020542;28;20187;-39
2024/03/28 03:07:05;;;;;;;17.13;15.47;;;12.60;1.00;;;;;;5019617;28;20189;-38
2024/03/28 03:09:31;;;;;;;16.73;15.53;;;12.50;1.00;;;;;;5020288;28;20268;-40
2024/03/28 03:11:56;;;;;;;14.67;13.60;;;12.40;39.70;;;;;;5021455;28;20283;-39
2024/03/28 03:14:23;;;;;;;13.10;12.20;;;12.30;1.00;;;;;;5020830;28;20186;-38
2024/03/28 03:16:48;;;;;;;11.63;11.03;;;12.10;1.00;;;;;;5020827;28;20272;-42
2024/03/28 03:19:16;;;;;;;11.30;10.80;;;11.90;1.00;;;;;;5019943;28;20990;-40
2024/03/28 03:21:43;;;;;;;10.43;10.00;;;11.70;1.00;;;;;;5020585;28;20471;-41
2024/03/28 03:24:12;;;;;;;10.50;10.00;;;11.60;1.00;;;;;;5019471;28;20445;-40
2024/03/28 03:26:38;;;;;;;10.80;10.30;;;11.40;1.00;;;;;;5018434;28;20428;-39
2024/03/28 03:34:35;;;;;;;9.93;9.43;;;11.00;1.00;;;;;;5020203;28;20460;-40
2024/03/28 03:37:08;;;;;;;9.93;9.53;;;10.80;1.00;;;;;;5020133;28;20431;-40
2024/03/28 03:39:33;;;;;;;10.40;9.90;;;10.60;1.00;;;;;;5019531;28;20424;-39
2024/03/28 03:41:59;;;;;;;10.00;9.60;;;10.50;1.00;;;;;;5020015;28;20947;-39
2024/03/28 03:44:25;;;;;;;9.90;9.50;;;10.40;1.00;;;;;;5019000;28;20194;-40
2024/03/28 03:46:50;;;;;;;9.40;9.10;;;10.30;1.00;;;;;;5019478;28;20325;-44
2024/03/28 03:49:16;;;;;;;9.30;9.00;;;10.20;1.00;;;;;;5019923;28;20190;-40
2024/03/28 03:51:42;;;;;;;9.20;8.90;;;10.00;99.90;;;;;;5019229;28;20193;-41
2024/03/28 03:54:07;;;;;;;9.63;9.33;;;9.90;1.00;;;;;;5018817;28;20273;-39
2024/03/28 03:56:33;;;;;;;9.80;9.10;;;9.60;29.60;;;;;;5019589;28;20198;-39
2024/03/28 03:58:58;;;;;;;9.30;9.00;;;9.50;99.90;;;;;;5019979;28;20667;-41
2024/03/28 04:01:25;;;;;;;9.20;8.90;;;9.30;99.90;;;;;;5018379;28;20206;-54
2024/03/28 04:03:50;;;;;;;9.50;9.20;;;9.20;1.00;;;;;;5019325;28;20214;-47
2024/03/28 04:06:16;;;;;;;10.30;9.90;;;9.10;1.00;;;;;;5020212;28;20520;-52
2024/03/28 04:08:42;;;;;;;10.00;9.60;;;9.10;99.90;;;;;;5018498;28;20659;-53
2024/03/28 04:11:07;;;;;;;10.37;9.93;;;9.00;99.90;;;;;;5019683;28;20320;-52
2024/03/28 04:13:33;;;;;;;11.70;10.73;;;8.90;99.90;;;;;;5019852;28;20190;-51
2024/03/28 04:15:58;;;;;;;12.40;11.90;;;8.90;1.00;;;;;;5018799;28;20194;-53
2024/03/28 04:18:24;;;;;;;12.03;11.57;;;8.80;1.00;;;;;;5020789;28;20240;-51
2024/03/28 04:20:50;;;;;;;13.17;12.67;;;8.70;1.00;;;;;;5019778;28;20297;-54
2024/03/28 04:23:16;;;;;;;13.10;12.60;;;8.60;1.00;;;;;;5019751;28;20175;-49
2024/03/28 04:25:42;;;;;;;13.10;12.60;;;8.50;1.00;;;;;;5017738;28;20463;-49
2024/03/28 04:28:07;;;;;;;12.70;12.20;;;8.50;1.00;;;;;;5020958;28;20425;-53
2024/03/28 04:30:36;;;;;;;12.90;12.40;;;8.50;1.00;;;;;;5020020;28;20191;-46
2024/03/28 04:33:02;;;;;;;12.90;12.30;;;8.40;1.00;;;;;;5019524;28;20253;-48
2024/03/28 04:35:28;;;;;;;12.60;12.10;;;8.30;1.00;;;;;;5019321;28;20867;-48
2024/03/28 04:37:54;;;;;;;12.57;12.07;;;8.30;1.00;;;;;;5018027;28;20441;-49
2024/03/28 04:40:20;;;;;;;12.20;11.70;;;8.20;1.00;;;;;;5020021;28;20582;-48
2024/03/28 04:42:50;;;;;;;13.07;12.37;;;8.20;1.00;;;;;;5019837;28;20225;-54
2024/03/28 04:45:19;;;;;;;12.73;12.23;;;8.20;1.00;;;;;;5019477;28;20789;-49
2024/03/28 04:47:48;;;;;;;12.80;12.30;;;8.20;1.00;;;;;;5019582;28;20494;-52
2024/03/28 04:50:15;;;;;;;12.57;12.07;;;8.20;1.00;;;;;;5018296;28;20516;-46
2024/03/28 04:52:40;;;;;;;12.27;11.77;;;8.10;1.00;;;;;;5018744;28;20519;-46
2024/03/28 04:55:07;;;;;;;13.27;12.73;;;8.20;1.00;;;;;;5019515;28;20448;-48
2024/03/28 04:57:33;;;;;;;12.30;11.80;;;8.10;1.00;;;;;;5022787;28;20194;-49
2024/03/28 04:59:59;;;;;;;12.07;11.57;;;8.10;1.00;;;;;;5023147;28;20468;-51
2024/03/28 05:02:25;;;;;;;13.20;12.60;;;8.10;1.00;;;;;;5020158;28;20455;-50
2024/03/28 05:04:50;;;;;;;12.57;12.07;;;8.10;1.00;;;;;;5021492;28;20196;-52
2024/03/28 05:07:16;;;;;;;13.30;12.70;;;8.00;1.00;;;;;;5022034;28;20417;-48
2024/03/28 05:09:44;;;;;;;12.53;12.03;;;8.00;1.00;;;;;;5022912;28;20283;-46
2024/03/28 05:12:10;;;;;;;12.90;12.30;;;8.00;1.00;;;;;;5021378;28;20193;-48
2024/03/28 05:14:35;;;;;;;12.97;12.37;;;7.90;1.00;;;;;;5023253;28;20775;-49
2024/03/28 05:17:01;;;;;;;11.80;11.30;;;7.90;1.00;;;;;;5020834;28;20190;-50
2024/03/28 05:19:27;;;;;;;12.80;12.20;;;7.90;1.00;;;;;;5022856;28;20174;-51
2024/03/28 05:21:52;;;;;;;13.20;12.60;;;7.90;1.00;;;;;;5023007;28;20275;-53
2024/03/28 05:24:18;;;;;;;12.20;11.70;;;7.90;1.00;;;;;;5023347;28;20216;-53
2024/03/28 05:26:43;;;;;;;12.73;12.23;;;7.90;1.00;;;;;;5021932;28;20248;-52
2024/03/28 05:29:09;;;;;;;11.30;10.90;;;7.90;1.00;;;;;;5022737;28;20549;-52
2024/03/28 05:31:34;;;;;;;11.70;11.20;;;7.90;1.00;;;;;;5022452;28;20553;-51
2024/03/28 05:34:00;;;;;;;11.73;11.23;;;7.90;1.00;;;;;;5023271;28;20201;-48
2024/03/28 05:36:25;;;;;;;11.70;11.20;;;7.90;1.00;;;;;;5022059;28;20198;-50
2024/03/28 05:38:52;;;;;;;10.20;9.80;;;8.00;99.90;;;;;;5022732;28;20194;-49
2024/03/28 05:41:17;;;;;;;10.60;10.20;;;8.00;99.90;;;;;;5022320;28;20459;-49
2024/03/28 05:43:43;;;;;;;11.30;10.80;;;8.10;99.90;;;;;;5022647;28;20437;-47
2024/03/28 05:46:09;;;;;;;10.93;10.43;;;8.00;1.00;;;;;;5021719;28;20195;-48
2024/03/28 05:48:35;;;;;;;10.07;9.67;;;8.00;1.00;;;;;;5022405;28;20413;-47
2024/03/28 05:51:00;;;;;;;10.53;10.13;;;8.00;99.90;;;;;;5022458;28;20494;-47
2024/03/28 05:53:26;;;;;;;10.80;10.40;;;8.10;99.90;;;;;;5022396;28;20189;-48
2024/03/28 05:55:52;;;;;;;10.20;9.80;;;8.10;99.90;;;;;;5021628;28;20577;-53
2024/03/28 05:58:17;;;;;;;9.20;8.90;;;8.20;1.00;;;;;;5022137;28;20277;-46
2024/03/28 06:00:43;;;;;;;9.73;9.33;;;8.20;99.90;;;;;;5021587;28;20206;-52
2024/03/28 06:03:08;;;;;;;9.80;9.40;;;8.20;1.00;;;;;;5020953;28;20210;-47
2024/03/28 06:05:34;;;;;;;9.33;9.03;;;8.30;67.50;;;;;;5021944;28;20187;-45
2024/03/28 06:08:00;;;;;;;10.30;9.90;;;8.30;99.90;;;;;;5022091;28;20222;-50
2024/03/28 06:10:25;;;;;;;9.70;9.30;;;8.30;1.00;;;;;;5021953;28;20656;-46
2024/03/28 06:12:51;;;;;;;10.03;9.63;;;8.40;49.60;;;;;;5020673;28;20190;-50
2024/03/28 06:15:17;;;;;;;10.20;9.80;;;8.40;1.00;;;;;;5020332;28;20224;-47
2024/03/28 06:17:42;;;;;;;9.70;9.30;;;8.50;99.90;;;;;;5020968;28;20238;-51
2024/03/28 06:20:10;;;;;;;8.30;8.00;;;8.60;99.90;;;;;;5021882;28;20214;-51
2024/03/28 06:22:35;;;;;;;9.80;9.40;;;8.50;99.90;;;;;;5021123;28;20262;-47
2024/03/28 06:25:01;;;;;;;9.90;9.50;;;8.50;1.00;;;;;;5021703;28;20428;-48
2024/03/28 06:27:27;;;;;;;9.30;9.00;;;8.60;1.00;;;;;;5021632;28;20190;-43
2024/03/28 06:29:53;;;;;;;8.77;8.47;;;8.60;1.00;;;;;;5021905;28;20516;-47
2024/03/28 06:32:25;;;;;;;9.00;8.70;;;8.60;1.00;;;;;;5021472;28;20182;-47
2024/03/28 06:34:52;;;;;;;8.90;8.60;;;8.60;1.00;;;;;;5020926;28;20187;-48
2024/03/28 06:37:19;;;;;;;8.73;8.43;;;8.70;1.00;;;;;;5021267;28;20430;-51
2024/03/28 06:39:46;;;;;;;8.80;8.50;;;8.70;99.90;;;;;;5021454;28;20468;-45
2024/03/28 06:42:11;;;;;;;9.90;9.50;;;8.80;80.80;;;;;;5021214;28;20940;-50
2024/03/28 06:44:37;;;;;;;8.87;8.57;;;8.80;99.90;;;;;;5020253;28;20512;-49
2024/03/28 06:47:04;;;;;;;9.07;8.77;;;8.90;1.00;;;;;;5018895;28;20186;-48
2024/03/28 06:49:30;;;;;;;9.13;8.73;;;8.80;1.00;;;;;;5020963;28;20171;-49
2024/03/28 06:51:56;;;;;;;9.37;8.97;;;8.80;99.90;;;;;;5021116;28;20930;-47
2024/03/28 06:54:21;;;;;;;9.00;8.70;;;8.80;1.00;;;;;;5020220;28;20520;-45
2024/03/28 06:56:47;;;;;;;9.00;8.70;;;9.00;99.90;;;;;;5021077;28;21190;-46
2024/03/28 06:59:13;;;;;;;9.53;9.13;;;8.90;99.90;;;;;;5020782;28;20194;-46
2024/03/28 07:01:40;;;;;;;8.33;8.03;;;9.00;99.90;;;;;;5020568;28;20214;-47
2024/03/28 07:04:07;;;;;;;8.00;7.70;;;9.00;26.10;;;;;;5019812;28;20486;-45
2024/03/28 07:06:33;;;;;;;9.93;9.53;;;8.90;1.00;;;;;;5019946;28;20444;-50
2024/03/28 07:08:58;;;;;;;8.40;8.10;;;8.90;99.90;;;;;;5020318;28;20425;-48
2024/03/28 07:11:25;;;;;;;8.63;8.33;;;9.00;16.10;;;;;;5020369;28;21086;-44
2024/03/28 07:13:51;;;;;;;9.60;9.20;;;8.90;1.00;;;;;;5018449;28;20210;-44
2024/03/28 07:16:17;;;;;;;9.27;8.90;;;8.90;33.00;;;;;;5020666;28;20951;-45
2024/03/28 07:18:44;;;;;;;8.90;8.50;;;9.00;33.30;;;;;;5020138;28;20469;-49
2024/03/28 07:21:10;;;;;;;9.70;9.30;;;9.10;1.00;;;;;;5020536;28;20900;-48
2024/03/28 07:23:36;;;;;;;9.07;8.77;;;9.10;1.00;;;;;;5020779;28;20424;-47
2024/03/28 07:26:03;;;;;;;9.60;9.20;;;9.20;1.00;;;;;;5019927;28;20875;-46
2024/03/28 07:28:28;;;;;;;10.10;9.70;;;9.30;1.00;;;;;;5020452;28;20421;-45
2024/03/28 07:30:54;;;;;;;9.90;9.50;;;9.30;1.00;;;;;;5020863;28;21111;-48
2024/03/28 07:33:20;;;;;;;10.10;9.63;;;9.40;1.00;;;;;;5020559;28;20186;-47
2024/03/28 07:35:45;;;;;;;9.90;9.50;;;9.50;1.00;;;;;;5019833;28;20194;-48
2024/03/28 07:38:12;;;;;;;9.80;9.30;;;9.60;99.90;;;;;;5020661;28;20264;-48
2024/03/28 07:40:37;;;;;;;10.17;9.67;;;9.70;99.90;;;;;;5020829;28;20469;-48
2024/03/28 07:43:03;;;;;;;10.60;10.20;;;9.80;99.90;;;;;;5020674;28;20441;-45
2024/03/28 07:45:29;;;;;;;10.30;9.80;;;9.80;99.90;;;;;;5019955;28;20633;-45
2024/03/28 07:47:54;;;;;;;10.20;9.80;;;9.90;99.90;;;;;;5020122;28;20727;-44
2024/03/28 07:50:20;;;;;;;9.90;9.50;;;9.90;99.90;;;;;;5020700;28;20205;-47
2024/03/28 07:52:46;;;;;;;10.60;10.10;;;10.00;99.90;;;;;;5020448;28;20186;-43
2024/03/28 07:55:13;;;;;;;10.77;10.07;;;9.90;99.40;;;;;;5020269;28;20441;-43
2024/03/28 07:57:40;;;;;;;10.17;9.67;;;10.00;99.90;;;;;;5019550;28;20518;-38
2024/03/28 08:00:06;;;;;;;11.13;10.63;;;10.20;99.90;;;;;;5019496;28;20476;-38
2024/03/28 08:02:32;;;;;;;10.70;10.20;;;10.20;70.00;;;;;;5020157;28;20464;-39
2024/03/28 08:04:59;;;;;;;10.90;10.40;;;10.30;53.80;;;;;;5019411;28;20433;-38
2024/03/28 08:07:25;;;;;;;10.73;10.13;;;10.50;44.90;;;;;;5019995;28;20653;-37
2024/03/28 08:09:50;;;;;;;11.00;10.40;;;10.40;1.00;;;;;;5019977;28;20411;-38
2024/03/28 08:12:18;;;;;;;10.53;9.83;;;10.50;1.00;;;;;;5019274;28;20437;-39
2024/03/28 08:14:44;;;;;;;10.57;10.07;;;10.60;1.00;;;;;;5018641;28;20190;-37
2024/03/28 08:17:09;;;;;;;10.10;9.40;;;10.50;1.00;;;;;;5019752;28;20469;-39
2024/03/28 08:19:35;;;;;;;10.23;9.73;;;10.60;1.00;;;;;;5019211;28;20586;-38
2024/03/28 08:22:00;;;;;;;10.30;9.80;;;10.70;1.00;;;;;;5020099;28;20211;-38
2024/03/28 08:24:30;;;;;;;10.70;10.20;;;11.00;1.00;;;;;;5019490;28;20175;-41
2024/03/28 08:26:56;;;;;;;10.60;10.20;;;11.30;1.00;;;;;;5018700;28;20183;-39
2024/03/28 08:29:22;;;;;;;10.40;9.90;;;11.50;1.00;;;;;;5020302;28;20431;-38
2024/03/28 08:31:48;;;;;;;10.43;9.93;;;11.70;1.00;;;;;;5023843;28;20577;-38
2024/03/28 08:34:13;;;;;;;11.47;10.87;;;11.60;1.00;;;;;;5022198;28;20510;-38
2024/03/28 08:36:39;;;;;;;11.53;11.03;;;11.60;1.00;;;;;;5023625;28;20503;-42
2024/03/28 08:39:05;;;;;;;11.40;10.80;;;11.90;1.00;;;;;;5023520;28;20218;-41
2024/03/28 08:41:31;;;;;;;11.20;10.67;;;12.10;1.00;;;;;;5023869;28;20198;-38
2024/03/28 08:43:57;;;;;;;10.80;10.30;;;12.20;1.00;;;;;;5023744;28;21009;-42
2024/03/28 08:46:23;;;;;;;10.93;10.43;;;12.20;1.00;;;;;;5022929;28;20441;-41
2024/03/28 08:48:49;;;;;;;11.20;10.60;;;12.60;1.00;;;;;;5023168;28;20179;-41
2024/03/28 08:51:17;;;;;;;11.17;10.63;;;12.80;1.00;;;;;;5023579;28;20413;-38
2024/03/28 08:53:42;;;;;;;10.70;10.10;;;13.10;1.00;;;;;;5023482;28;20182;-39
2024/03/28 08:56:08;;;;;;;11.20;10.70;;;13.20;1.00;;;;;;5023235;28;20495;-41
2024/03/28 08:58:35;;;;;;;10.80;10.30;;;13.20;1.00;;;;;;5023422;28;20417;-39
2024/03/28 09:01:01;;;;;;;10.83;10.33;;;13.30;99.90;;;;;;5022976;28;21145;-41
2024/03/28 09:03:27;;;;;;;10.70;10.20;;;13.50;99.90;;;;;;5023379;28;20425;-42
2024/03/28 09:05:53;;;;;;;11.40;10.90;;;13.90;99.90;;;;;;5022832;28;20183;-38
2024/03/28 09:08:19;;;;;;;11.10;10.60;;;14.40;99.90;;;;;;5023691;28;20421;-41
2024/03/28 09:10:53;;;;;;;10.10;9.70;;;14.80;99.90;;;;;;5022114;28;20441;-39
2024/03/28 09:13:19;;;;;;;10.10;9.70;;;15.00;99.90;;;;;;5023082;28;20421;-42
2024/03/28 09:15:45;;;;;;;10.50;10.10;;;15.30;99.90;;;;;;5023117;28;20503;-41
2024/03/28 09:18:11;;;;;;;10.80;10.40;;;14.90;99.90;;;;;;5022902;28;20230;-43
2024/03/28 09:20:36;;;;;;;11.20;10.80;;;14.90;99.90;;;;;;5022684;28;20475;-43
2024/03/28 09:23:02;;;;;;;10.00;9.60;;;14.70;99.90;;;;;;5023190;28;20181;-39
2024/03/28 09:25:28;;;;;;;9.93;9.47;;;14.80;99.90;;;;;;5023340;28;20182;-37
2024/03/28 09:27:54;;;;;;;9.80;9.40;;;14.40;99.90;;;;;;5022223;28;20239;-45
2024/03/28 09:30:19;;;;;;;9.80;9.30;;;14.70;99.90;;;;;;5020984;28;20206;-51
2024/03/28 09:32:45;;;;;;;9.97;9.57;;;14.90;99.90;;;;;;5022899;28;20567;-45
2024/03/28 09:35:11;;;;;;;10.83;10.27;;;15.30;99.90;;;;;;5022648;28;20186;-48
2024/03/28 09:37:37;;;;;;;10.13;9.63;;;16.10;99.90;;;;;;5022853;28;20451;-49
2024/03/28 09:40:06;;;;;;;10.17;9.77;;;16.90;99.90;;;;;;5022700;28;20417;-51
2024/03/28 09:42:35;;;;;;;10.60;10.20;;;16.70;99.90;;;;;;5021085;28;20185;-47
2024/03/28 09:45:03;;;;;;;10.63;10.23;;;16.60;99.90;;;;;;5021397;28;20437;-47
2024/03/28 09:47:30;;;;;;;10.17;9.77;;;16.50;99.90;;;;;;5022404;28;21304;-46
2024/03/28 09:49:57;;;;;;;9.60;9.20;;;16.40;99.90;;;;;;5021299;28;20439;-52
2024/03/28 09:52:25;;;;;;;10.30;9.70;;;16.30;99.90;;;;;;5021974;28;20429;-47
2024/03/28 09:54:51;;;;;;;9.70;9.30;;;16.40;99.90;;;;;;5022507;28;20417;-47
2024/03/28 09:57:17;;;;;;;10.10;9.70;;;16.10;99.90;;;;;;5021306;28;20459;-49
2024/03/28 09:59:43;;;;;;;10.20;9.80;;;16.90;99.90;;;;;;5022290;28;20425;-47
2024/03/28 10:02:19;;;;;;;9.83;9.43;;;17.30;99.90;;;;;;5021934;28;20555;-49
2024/03/28 10:04:51;;;;;;;10.20;9.80;;;17.90;99.90;;;;;;5021554;28;21040;-50
2024/03/28 10:07:18;;;;;;;9.80;9.40;;;17.30;99.90;;;;;;5021419;28;20894;-49
2024/03/28 10:09:44;;;;;;;9.27;8.97;;;17.30;99.90;;;;;;5022178;28;20457;-49
2024/03/28 10:12:13;;;;;;;10.00;9.60;;;17.20;99.90;;;;;;5022042;28;20428;-49
2024/03/28 10:14:42;;;;;;;9.60;9.20;;;17.30;99.90;;;;;;5020931;28;21049;-49
2024/03/28 10:17:10;;;;;;;9.70;9.30;;;17.70;99.90;;;;;;5020582;28;20951;-40
2024/03/28 10:19:39;;;;;;;10.47;10.07;;;18.80;99.90;;;;;;5020771;28;20941;-39
2024/03/28 10:22:10;;;;;;;8.73;8.43;;;19.70;99.90;;;;;;5020851;28;20591;-48
2024/03/28 10:24:37;;;;;;;10.10;9.70;;;20.80;99.90;;;;;;5021857;28;21552;-40
2024/03/28 10:27:33;;;;;;;9.67;9.17;;;20.00;99.90;;;;;;5021634;28;20487;-52
2024/03/28 10:29:58;;;;;;;9.53;9.13;;;21.00;99.90;;;;;;5017109;28;20445;-52
2024/03/28 10:32:24;;;;;;;9.20;8.80;;;22.10;99.90;;;;;;5021695;28;20445;-49
2024/03/28 10:34:51;;;;;;;8.77;8.37;;;22.80;99.90;;;;;;5021462;28;20265;-47
2024/03/28 10:37:21;;;;;;;9.67;9.27;;;23.40;99.90;;;;;;5020488;28;20178;-48
2024/03/28 10:39:47;;;;;;;9.30;8.93;;;23.20;99.90;;;;;;5020904;28;20506;-51
2024/03/28 10:42:16;;;;;;;9.30;8.80;;;22.90;99.90;;;;;;5021275;28;20461;-48
2024/03/28 10:44:46;;;;;;;8.97;8.67;;;22.70;99.90;;;;;;5021479;28;20433;-52
2024/03/28 10:47:15;;;;;;;9.10;8.70;;;23.50;99.90;;;;;;5021046;28;20421;-46
2024/03/28 10:49:59;;;;;;;9.30;8.90;;;23.90;99.90;;;;;;5020617;28;20433;-42
2024/03/28 10:52:50;;;;;;;9.60;9.20;;;23.70;99.90;;;;;;5021203;28;20413;-43
2024/03/28 10:55:22;;;;;;;8.80;8.50;;;23.50;99.90;;;;;;5021559;28;20436;-39
2024/03/28 10:57:48;;;;;;;9.37;8.97;;;21.40;99.90;;;;;;5020343;28;20402;-44
2024/03/28 11:00:14;;;;;;;9.30;9.00;;;20.20;99.90;;;;;;5021151;28;20534;-39
2024/03/28 11:02:43;;;;;;;7.20;6.90;;;20.60;99.90;;;;;;5021346;28;20462;-43
2024/03/28 11:05:08;;;;;;;9.23;8.83;;;21.10;99.90;;;;;;5021141;28;20416;-40
2024/03/28 11:07:35;;;;;;;9.17;8.87;;;20.40;99.90;;;;;;5020569;28;20421;-47
2024/03/28 11:10:00;;;;;;;9.67;9.27;;;20.60;99.90;;;;;;5019325;28;20189;-47
2024/03/28 11:12:28;;;;;;;8.50;8.20;;;21.00;99.90;;;;;;5020700;28;20418;-47
2024/03/28 11:15:00;;;;;;;9.47;9.17;;;21.10;99.90;;;;;;5020471;28;20578;-50
2024/03/28 11:17:26;;;;;;;8.97;8.67;;;21.60;99.90;;;;;;5020400;28;20465;-49
2024/03/28 11:20:02;;;;;;;8.03;7.73;;;21.70;99.90;;;;;;5019551;28;20437;-40
2024/03/28 11:22:32;;;;;;;8.87;8.57;;;20.60;99.90;;;;;;5021682;28;20711;-42
2024/03/28 11:24:58;;;;;;;8.53;8.23;;;20.70;99.90;;;;;;5020603;28;20421;-41
2024/03/28 11:27:23;;;;;;;8.20;7.90;;;20.90;99.90;;;;;;5019987;28;20954;-39
2024/03/28 11:30:04;;;;;;;9.40;9.10;;;21.30;99.90;;;;;;5020175;28;20191;-46
2024/03/28 11:32:29;;;;;;;8.97;8.67;;;21.50;99.90;;;;;;5020598;28;20329;-44
2024/03/28 11:35:06;;;;;;;9.20;8.80;;;21.00;99.90;;;;;;5020561;28;20813;-46
2024/03/28 11:37:32;;;;;;;9.20;8.73;;;20.20;99.90;;;;;;5020708;28;20193;-40
2024/03/28 11:39:58;;;;;;;9.30;9.00;;;19.90;99.90;;;;;;5019785;28;20437;-46
2024/03/28 11:42:23;;;;;;;9.33;9.03;;;20.40;99.90;;;;;;5020209;28;20186;-43
2024/03/28 11:44:49;;;;;;;9.27;8.97;;;20.60;99.90;;;;;;5020237;28;21003;-44
2024/03/28 11:47:21;;;;;;;9.00;8.70;;;20.10;99.90;;;;;;5020452;28;20209;-44
2024/03/28 11:49:47;;;;;;;10.03;9.30;;;19.60;99.90;;;;;;5019702;28;20254;-39
2024/03/28 11:52:13;;;;;;;9.57;9.17;;;19.60;99.90;;;;;;5020433;28;20829;-39
2024/03/28 11:54:39;;;;;;;10.00;9.50;;;19.20;99.90;;;;;;5020208;28;20417;-41
2024/03/28 11:57:05;;;;;;;9.33;8.93;;;19.70;99.90;;;;;;5020236;28;20202;-43
2024/03/28 11:59:30;;;;;;;10.40;9.90;;;20.20;99.90;;;;;;5020571;28;21346;-42
2024/03/28 12:02:03;;;;;;;9.20;8.80;;;20.60;99.90;;;;;;5019509;28;20221;-42
2024/03/28 12:04:29;;;;;;;9.60;9.30;;;20.90;99.90;;;;;;5021556;28;20220;-43
2024/03/28 12:06:57;;;;;;;8.47;8.17;;;21.30;99.90;;;;;;5024180;28;20911;-42
2024/03/28 12:09:23;;;;;;;10.00;9.60;;;21.70;99.90;;;;;;5024349;28;20427;-38
2024/03/28 12:11:49;;;;;;;8.60;8.30;;;21.70;99.90;;;;;;5023732;28;20467;-42
2024/03/28 12:14:21;;;;;;;9.80;9.50;;;19.70;99.90;;;;;;5024379;28;20440;-40
2024/03/28 12:16:47;;;;;;;9.30;9.00;;;19.70;99.90;;;;;;5024088;28;20194;-43
2024/03/28 12:19:23;;;;;;;9.30;8.90;;;19.20;99.90;;;;;;5022822;28;20678;-38
2024/03/28 12:21:50;;;;;;;9.47;9.17;;;18.80;99.90;;;;;;5023904;28;20475;-40
2024/03/28 12:24:16;;;;;;;9.03;8.73;;;18.30;99.90;;;;;;5024113;28;20915;-38
2024/03/28 12:26:42;;;;;;;9.50;9.10;;;18.10;99.90;;;;;;5024019;28;20405;-42
2024/03/28 12:29:08;;;;;;;9.43;9.10;;;17.90;99.90;;;;;;5023039;28;20502;-39
2024/03/28 12:31:34;;;;;;;9.70;9.30;;;17.90;99.90;;;;;;5023671;28;20206;-41
2024/03/28 12:34:11;;;;;;;9.80;9.30;;;17.60;99.90;;;;;;5024113;28;20417;-42
2024/03/28 12:36:38;;;;;;;8.87;8.57;;;17.30;99.90;;;;;;5023894;28;20217;-37
2024/03/28 12:39:05;;;;;;;9.70;9.30;;;17.10;99.90;;;;;;5022869;28;20429;-38
2024/03/28 12:41:31;;;;;;;9.10;8.80;;;16.80;99.90;;;;;;5038616;28;20511;-40
2024/03/28 12:43:58;;;;;;;10.27;9.60;;;16.60;99.90;;;;;;5023882;28;20428;-42
2024/03/28 12:46:24;;;;;;;9.70;9.40;;;16.30;99.90;;;;;;5023599;28;20660;-44